Tropical Cyclones
[Index]
Main Index Home Page Stock Weather Photos Extreme Storms Discussion Storm News and Storm Chasing Reports Tropical Cyclones / Hurricanes / Typhoons Weather Data and Links Wild Fires / Bushfires Weather Observation Techniques Weather Picture Catalogue Tornado Pictures and Reports Stock Video Footage and DVDs for sale
Season 2010-2011 Tropical Cyclone ERROL Track Map
Season 2010-2011 Summaries: [BoM-AU] [JTWC-AU] [JTWC-SIO] [JTWC-SPAC] [JTWC-SH]
<<- Previous TC | JTWC 2010-2011 Season | Next TC ->>

click for intensity scale information  Lat/long Grid: Show Hide

 Date Labels: Show Hide

Joint Typhoon Warning Centre Cyclone Data

Name: ERROL

13 Apr 2011 06:00 UTC to 18 Apr 2011 06:00 UTC

    date/time    lat    long     hPa   cat  kts
2011-04-13 06   12.5   125.3    1010         15          
2011-04-13 12   12.4   125.6    1007         20          
2011-04-13 18   12.4   125.8    1004         25          
2011-04-14 00   12.5   125.9    1000         30          
2011-04-14 06   12.5   126.1    1000         30          
2011-04-14 12   12.8   126.2    1000         30          
2011-04-14 18   13.1   126.2     996         35          
2011-04-15 00   12.9   126.1     993    1    40          
2011-04-15 06   12.7   126.0     993    1    40          
2011-04-15 12   12.3   125.8     989    1    45          
2011-04-15 18   12.0   125.4     989    1    45          
2011-04-16 00   11.7   125.1     985    1    50          
2011-04-16 06   11.4   124.8     987    1    50          
2011-04-16 12   11.2   124.9     982    2    55          
2011-04-16 12   11.2   124.9     982    2    55          
2011-04-16 18   11.2   125.1     985    1    50          
2011-04-17 00   11.0   125.2     989    1    45          
2011-04-17 06   10.4   125.2     993    1    40          
2011-04-17 12   10.1   124.9     996         35          
2011-04-17 18    9.9   124.6     996         35          
2011-04-18 00    9.7   124.2    1000         30          
2011-04-18 06    9.6   123.8    1004         25          
Winds are 1-min average.

Tropical cyclone tracks developed by Michael Bath using data from the Joint Typhoon Warning Centre Best Tracks and Google Maps.


[Australian Severe Weather index] [Copyright Notice] [Email Contacts] [Search This Site] [Privacy Policy]
Document: tropical_cyclone_errol.htm Updated: 28 June 2017